createdAt,value
2023-03-19T00:00:06.635Z,12.40
2023-03-19T00:01:06.643Z,12.39
2023-03-19T00:02:17.119Z,12.37
2023-03-19T00:03:06.767Z,12.34
2023-03-19T00:04:06.588Z,12.31
2023-03-19T00:05:06.575Z,12.29
2023-03-19T00:06:06.572Z,12.28
2023-03-19T00:07:06.557Z,12.28
2023-03-19T00:08:06.570Z,12.28
2023-03-19T00:09:06.541Z,12.29
2023-03-19T00:10:06.520Z,12.32
2023-03-19T00:11:06.511Z,12.28
2023-03-19T00:12:06.497Z,12.21
2023-03-19T00:13:06.492Z,12.21
2023-03-19T00:14:06.487Z,12.17
2023-03-19T00:15:06.466Z,12.14
2023-03-19T00:16:06.474Z,12.12
2023-03-19T00:17:06.463Z,12.10
2023-03-19T00:18:06.448Z,12.07
2023-03-19T00:19:06.425Z,12.06
2023-03-19T00:20:06.416Z,12.12
2023-03-19T00:21:06.410Z,12.13
2023-03-19T00:22:06.392Z,12.13
2023-03-19T00:23:06.388Z,12.10
2023-03-19T00:24:06.401Z,12.09
2023-03-19T00:25:06.364Z,12.12
2023-03-19T00:26:06.348Z,12.13
2023-03-19T00:27:06.339Z,12.07
2023-03-19T00:28:06.332Z,11.99
2023-03-19T00:29:06.316Z,11.92
2023-03-19T00:30:06.325Z,11.89
2023-03-19T00:31:06.315Z,11.87
2023-03-19T00:32:06.283Z,11.88
2023-03-19T00:33:06.372Z,11.84
2023-03-19T00:34:06.259Z,11.79
2023-03-19T00:35:06.337Z,11.76
2023-03-19T00:36:06.272Z,11.74
2023-03-19T00:37:06.225Z,11.73
2023-03-19T00:38:06.245Z,11.67
2023-03-19T00:39:06.208Z,11.64
2023-03-19T00:40:06.217Z,11.62
2023-03-19T00:41:06.187Z,11.66
2023-03-19T00:42:06.178Z,11.66
2023-03-19T00:43:06.164Z,11.67
2023-03-19T00:44:06.158Z,11.67
2023-03-19T00:45:06.136Z,11.64
2023-03-19T00:46:06.224Z,11.59
2023-03-19T00:47:06.119Z,11.56
2023-03-19T00:48:06.102Z,11.52
2023-03-19T00:49:06.099Z,11.52
2023-03-19T00:50:06.081Z,11.51
2023-03-19T00:51:06.103Z,11.52
2023-03-19T00:52:06.058Z,11.51
2023-03-19T00:53:06.044Z,11.51
2023-03-19T00:54:06.040Z,11.51
2023-03-19T00:55:06.025Z,11.51
2023-03-19T00:56:06.037Z,11.54
2023-03-19T00:57:06.014Z,11.59
2023-03-19T00:58:05.988Z,11.62
2023-03-19T00:59:05.981Z,11.59
2023-03-19T01:00:05.975Z,11.51
2023-03-19T01:01:06.009Z,11.38
2023-03-19T01:02:05.966Z,11.36
2023-03-19T01:03:07.975Z,11.38
2023-03-19T01:04:05.966Z,11.43
2023-03-19T01:05:05.905Z,11.48
2023-03-19T01:06:05.901Z,11.48
2023-03-19T01:07:06.900Z,11.48
2023-03-19T01:08:05.874Z,11.49
2023-03-19T01:09:05.860Z,11.51
2023-03-19T01:10:05.849Z,11.54
2023-03-19T01:11:05.837Z,11.58
2023-03-19T01:12:05.850Z,11.59
2023-03-19T01:13:05.814Z,11.62
2023-03-19T01:14:05.809Z,11.59
2023-03-19T01:15:05.797Z,11.56
2023-03-19T01:16:05.793Z,11.48
2023-03-19T01:17:05.784Z,11.41
2023-03-19T01:18:05.766Z,11.34
2023-03-19T01:19:05.747Z,11.31
2023-03-19T01:20:05.736Z,11.30
2023-03-19T01:21:05.725Z,11.30
2023-03-19T01:22:05.712Z,11.28
2023-03-19T01:23:05.705Z,11.31
2023-03-19T01:24:05.691Z,11.31
2023-03-19T01:25:05.685Z,11.31
2023-03-19T01:26:05.695Z,11.28
2023-03-19T01:27:05.694Z,11.28
2023-03-19T01:28:05.684Z,11.22
2023-03-19T01:29:05.645Z,11.22
2023-03-19T01:30:05.626Z,11.25
2023-03-19T01:31:05.716Z,11.27
2023-03-19T01:32:05.597Z,11.27
2023-03-19T01:33:05.662Z,11.27
2023-03-19T01:34:05.594Z,11.27
2023-03-19T01:35:05.572Z,11.19
2023-03-19T01:36:05.694Z,11.14
2023-03-19T01:37:05.577Z,11.10
2023-03-19T01:38:05.570Z,11.04
2023-03-19T01:39:05.526Z,11.07
2023-03-19T01:40:05.552Z,11.02
2023-03-19T01:41:05.499Z,11.00
2023-03-19T01:42:05.488Z,10.96
2023-03-19T01:43:05.481Z,10.92
2023-03-19T01:44:05.493Z,10.85
2023-03-19T01:45:05.454Z,10.82
2023-03-19T01:46:05.521Z,10.85
2023-03-19T01:47:05.433Z,10.86
2023-03-19T01:48:05.426Z,10.82
2023-03-19T01:49:05.405Z,10.79
2023-03-19T01:50:05.404Z,10.81
2023-03-19T01:51:05.383Z,10.77
2023-03-19T01:52:05.375Z,10.74
2023-03-19T01:53:05.374Z,10.75
2023-03-19T01:54:05.358Z,10.74
2023-03-19T01:55:05.345Z,10.69
2023-03-19T01:56:05.339Z,10.71
2023-03-19T01:57:05.316Z,10.71
2023-03-19T01:58:05.309Z,10.71
2023-03-19T01:59:05.291Z,10.74
2023-03-19T02:00:05.318Z,10.77
2023-03-19T02:01:05.279Z,10.79
2023-03-19T02:02:05.286Z,10.82
2023-03-19T02:03:05.250Z,10.84
2023-03-19T02:04:05.303Z,10.81
2023-03-19T02:05:05.228Z,10.81
2023-03-19T02:06:05.219Z,10.78
2023-03-19T02:07:05.208Z,10.78
2023-03-19T02:08:05.198Z,10.75
2023-03-19T02:09:05.178Z,10.74
2023-03-19T02:10:05.169Z,10.77
2023-03-19T02:11:05.162Z,10.79
2023-03-19T02:12:05.144Z,10.82
2023-03-19T02:13:05.179Z,10.89
2023-03-19T02:14:05.123Z,10.86
2023-03-19T02:15:05.110Z,10.82
2023-03-19T02:16:05.197Z,10.79
2023-03-19T02:17:05.087Z,10.84
2023-03-19T02:18:05.091Z,10.84
2023-03-19T02:19:05.064Z,10.81
2023-03-19T02:20:05.063Z,10.84
2023-03-19T02:21:05.041Z,10.82
2023-03-19T02:22:05.037Z,10.82
2023-03-19T02:23:05.021Z,10.84
2023-03-19T02:24:05.017Z,10.89
2023-03-19T02:25:05.020Z,10.89
2023-03-19T02:26:04.986Z,10.85
2023-03-19T02:27:04.974Z,10.82
2023-03-19T02:28:04.965Z,10.77
2023-03-19T02:29:04.954Z,10.71
2023-03-19T02:30:04.946Z,10.61
2023-03-19T02:31:04.958Z,10.57
2023-03-19T02:32:04.947Z,10.60
2023-03-19T02:33:04.961Z,10.60
2023-03-19T02:34:04.895Z,10.56
2023-03-19T02:35:04.886Z,10.48
2023-03-19T02:36:04.919Z,10.43
2023-03-19T02:37:04.870Z,10.43
2023-03-19T02:38:04.861Z,10.41
2023-03-19T02:39:04.858Z,10.38
2023-03-19T02:40:04.828Z,10.36
2023-03-19T02:41:04.825Z,10.34
2023-03-19T02:42:04.811Z,10.35
2023-03-19T02:43:04.812Z,10.41
2023-03-19T02:44:04.793Z,10.45
2023-03-19T02:45:04.770Z,10.46
2023-03-19T02:46:04.762Z,10.48
2023-03-19T02:47:04.754Z,10.46
2023-03-19T02:48:04.760Z,10.45
2023-03-19T02:49:04.726Z,10.39
2023-03-19T02:50:04.727Z,10.41
2023-03-19T02:51:04.704Z,10.41
2023-03-19T02:52:04.693Z,10.45
2023-03-19T02:53:04.686Z,10.46
2023-03-19T02:54:04.676Z,10.51
2023-03-19T02:55:04.665Z,10.53
2023-03-19T02:56:04.648Z,10.56
2023-03-19T02:57:04.677Z,10.57
2023-03-19T02:58:04.627Z,10.60
2023-03-19T02:59:04.635Z,10.61
2023-03-19T03:00:04.604Z,10.61
2023-03-19T03:01:04.680Z,10.59
2023-03-19T03:02:04.695Z,10.56
2023-03-19T03:03:04.576Z,10.57
2023-03-19T03:04:04.587Z,10.57
2023-03-19T03:05:04.558Z,10.53
2023-03-19T03:06:04.557Z,10.51
2023-03-19T03:07:04.530Z,10.48
2023-03-19T03:08:04.522Z,10.46
2023-03-19T03:09:04.525Z,10.42
2023-03-19T03:10:04.504Z,10.42
2023-03-19T03:11:04.491Z,10.43
2023-03-19T03:12:04.483Z,10.49
2023-03-19T03:13:04.465Z,10.53
2023-03-19T03:14:04.461Z,10.54
2023-03-19T03:15:04.451Z,10.53
2023-03-19T03:16:04.478Z,10.57
2023-03-19T03:17:04.421Z,10.57
2023-03-19T03:18:04.416Z,10.56
2023-03-19T03:19:04.407Z,10.56
2023-03-19T03:20:04.418Z,10.56
2023-03-19T03:21:04.382Z,10.59
2023-03-19T03:22:04.373Z,10.61
2023-03-19T03:23:04.362Z,10.60
2023-03-19T03:24:04.362Z,10.61
2023-03-19T03:25:04.342Z,10.63
2023-03-19T03:26:04.330Z,10.60
2023-03-19T03:27:04.317Z,10.59
2023-03-19T03:28:04.308Z,10.60
2023-03-19T03:29:04.290Z,10.59
2023-03-19T03:30:04.280Z,10.59
2023-03-19T03:31:04.272Z,10.53
2023-03-19T03:32:04.283Z,10.46
2023-03-19T03:33:04.346Z,10.43
2023-03-19T03:34:04.239Z,10.38
2023-03-19T03:35:04.227Z,10.35
2023-03-19T03:36:04.256Z,10.31
2023-03-19T03:37:04.203Z,10.27
2023-03-19T03:38:04.203Z,10.21
2023-03-19T03:39:04.217Z,10.21
2023-03-19T03:40:04.168Z,10.21
2023-03-19T03:41:04.165Z,10.16
2023-03-19T03:42:04.146Z,10.09
2023-03-19T03:43:04.137Z,10.10
2023-03-19T03:44:04.125Z,10.10
2023-03-19T03:45:04.112Z,10.12
2023-03-19T03:46:04.166Z,10.10
2023-03-19T03:47:04.100Z,10.03
2023-03-19T03:48:04.085Z,9.99
2023-03-19T03:49:04.074Z,9.99
2023-03-19T03:50:04.065Z,10.01
2023-03-19T03:51:04.051Z,10.02
2023-03-19T03:52:04.062Z,10.03
2023-03-19T03:53:04.029Z,10.05
2023-03-19T03:54:04.015Z,10.06
2023-03-19T03:55:04.005Z,10.05
2023-03-19T03:56:03.993Z,10.02
2023-03-19T03:57:03.992Z,10.01
2023-03-19T03:58:03.972Z,10.03
2023-03-19T03:59:03.959Z,10.06
2023-03-19T04:00:03.955Z,10.08
2023-03-19T04:01:03.944Z,10.08
2023-03-19T04:02:04.016Z,10.08
2023-03-19T04:03:04.033Z,10.08
2023-03-19T04:04:03.908Z,10.10
2023-03-19T04:05:03.896Z,10.16
2023-03-19T04:06:03.882Z,10.17
2023-03-19T04:07:03.880Z,10.17
2023-03-19T04:08:03.901Z,10.17
2023-03-19T04:09:03.850Z,10.17
2023-03-19T04:10:03.838Z,10.21
2023-03-19T04:11:03.834Z,10.20
2023-03-19T04:12:03.822Z,10.21
2023-03-19T04:13:03.806Z,10.24
2023-03-19T04:14:03.793Z,10.24
2023-03-19T04:15:03.784Z,10.23
2023-03-19T04:16:03.769Z,10.23
2023-03-19T04:17:03.764Z,10.23
2023-03-19T04:18:03.748Z,10.18
2023-03-19T04:19:03.743Z,10.20
2023-03-19T04:20:03.728Z,10.20
2023-03-19T04:21:03.724Z,10.14
2023-03-19T04:22:03.713Z,10.09
2023-03-19T04:23:03.694Z,10.08
2023-03-19T04:24:03.716Z,10.10
2023-03-19T04:25:03.679Z,10.12
2023-03-19T04:26:03.663Z,10.12
2023-03-19T04:27:03.653Z,10.14
2023-03-19T04:28:03.642Z,10.16
2023-03-19T04:29:03.628Z,10.17
2023-03-19T04:30:03.617Z,10.16
2023-03-19T04:31:03.659Z,10.14
2023-03-19T04:32:03.602Z,10.12
2023-03-19T04:33:03.689Z,10.08
2023-03-19T04:34:03.581Z,10.06
2023-03-19T04:35:03.580Z,10.08
2023-03-19T04:36:03.632Z,10.08
2023-03-19T04:37:03.539Z,10.09
2023-03-19T04:38:03.548Z,10.09
2023-03-19T04:39:03.525Z,10.08
2023-03-19T04:40:03.536Z,10.01
2023-03-19T04:41:03.494Z,9.94
2023-03-19T04:42:03.483Z,9.87
2023-03-19T04:43:03.470Z,9.81
2023-03-19T04:44:03.464Z,9.77
2023-03-19T04:45:03.452Z,9.77
2023-03-19T04:46:03.475Z,9.81
2023-03-19T04:47:03.429Z,9.81
2023-03-19T04:48:03.417Z,9.81
2023-03-19T04:49:03.404Z,9.83
2023-03-19T04:50:03.393Z,9.85
2023-03-19T04:51:03.384Z,9.87
2023-03-19T04:52:03.375Z,9.87
2023-03-19T04:53:03.377Z,9.90
2023-03-19T04:54:03.346Z,9.90
2023-03-19T04:55:03.350Z,9.90
2023-03-19T04:56:03.369Z,9.93
2023-03-19T04:57:03.342Z,9.99
2023-03-19T04:58:03.317Z,10.01
2023-03-19T04:59:03.292Z,10.02
2023-03-19T05:00:03.296Z,9.99
2023-03-19T05:01:03.291Z,9.94
2023-03-19T05:02:03.262Z,9.94
2023-03-19T05:03:03.258Z,9.98
2023-03-19T05:04:03.275Z,10.01
2023-03-19T05:05:03.237Z,10.06
2023-03-19T05:06:03.219Z,10.08
2023-03-19T05:07:03.204Z,10.05
2023-03-19T05:08:03.198Z,10.03
2023-03-19T05:09:03.184Z,10.01
2023-03-19T05:10:03.194Z,9.99
2023-03-19T05:11:03.189Z,10.01
2023-03-19T05:12:03.175Z,10.05
2023-03-19T05:13:03.142Z,10.09
2023-03-19T05:14:03.134Z,10.10
2023-03-19T05:15:03.115Z,10.14
2023-03-19T05:16:03.170Z,10.17
2023-03-19T05:17:03.100Z,10.17
2023-03-19T05:18:03.085Z,10.17
2023-03-19T05:19:03.071Z,10.01
2023-03-19T05:20:03.066Z,9.81
2023-03-19T05:21:03.049Z,9.68
2023-03-19T05:22:03.038Z,9.61
2023-03-19T05:23:03.027Z,9.62
2023-03-19T05:24:03.022Z,9.64
2023-03-19T05:25:03.013Z,9.69
2023-03-19T05:26:03.017Z,9.76
2023-03-19T05:27:02.985Z,9.83
2023-03-19T05:28:02.995Z,9.85
2023-03-19T05:29:02.962Z,9.90
2023-03-19T05:30:03.054Z,9.93
2023-03-19T05:31:02.967Z,9.98
2023-03-19T05:32:02.971Z,9.98
2023-03-19T05:33:05.052Z,10.01
2023-03-19T05:34:02.911Z,10.03
2023-03-19T05:35:02.898Z,10.06
2023-03-19T05:36:02.968Z,10.12
2023-03-19T05:37:02.869Z,10.17
2023-03-19T05:38:02.867Z,10.17
2023-03-19T05:39:02.851Z,10.17
2023-03-19T05:40:02.838Z,10.16
2023-03-19T05:41:02.828Z,10.18
2023-03-19T05:42:02.837Z,10.18
2023-03-19T05:43:02.806Z,10.21
2023-03-19T05:44:02.824Z,10.24
2023-03-19T05:45:02.807Z,10.27
2023-03-19T05:46:02.821Z,10.30
2023-03-19T05:47:02.767Z,10.34
2023-03-19T05:48:02.748Z,10.35
2023-03-19T05:49:04.758Z,10.41
2023-03-19T05:50:02.728Z,10.43
2023-03-19T05:51:02.743Z,10.46
2023-03-19T05:52:02.717Z,10.48
2023-03-19T05:53:04.698Z,10.53
2023-03-19T05:54:02.689Z,10.53
2023-03-19T05:55:02.674Z,10.53
2023-03-19T05:56:02.660Z,10.53
2023-03-19T05:57:03.556Z,10.53
2023-03-19T05:58:02.643Z,10.54
2023-03-19T05:59:02.626Z,10.57
2023-03-19T06:00:02.636Z,10.60
2023-03-19T06:01:02.621Z,10.63
2023-03-19T06:02:02.594Z,10.66
2023-03-19T06:03:02.658Z,10.71
2023-03-19T06:04:05.492Z,10.75
2023-03-19T06:05:02.568Z,10.77
2023-03-19T06:06:02.555Z,10.78
2023-03-19T06:07:02.539Z,10.79
2023-03-19T06:08:02.527Z,10.78
2023-03-19T06:09:02.528Z,10.82
2023-03-19T06:10:02.506Z,10.81
2023-03-19T06:11:02.494Z,10.82
2023-03-19T06:12:02.480Z,10.92
2023-03-19T06:13:02.475Z,10.97
2023-03-19T06:14:02.458Z,11.02
2023-03-19T06:15:02.469Z,11.11
2023-03-19T06:16:02.484Z,11.17
2023-03-19T06:17:02.433Z,11.27
2023-03-19T06:18:02.414Z,11.41
2023-03-19T06:19:02.411Z,11.61
2023-03-19T06:20:02.395Z,11.76
2023-03-19T06:21:02.395Z,11.94
2023-03-19T06:22:02.369Z,12.14
2023-03-19T06:23:02.357Z,12.35
2023-03-19T06:24:02.353Z,12.54
2023-03-19T06:25:02.337Z,12.83
2023-03-19T06:26:02.324Z,12.99
2023-03-19T06:27:02.316Z,13.23
2023-03-19T06:28:02.306Z,13.38
2023-03-19T06:29:02.291Z,13.48
2023-03-19T06:30:02.290Z,13.56
2023-03-19T06:31:02.434Z,13.62
2023-03-19T06:32:02.290Z,13.64
2023-03-19T06:33:02.320Z,13.67
2023-03-19T06:34:02.238Z,13.59
2023-03-19T06:35:02.227Z,13.44
2023-03-19T06:36:02.290Z,13.37
2023-03-19T06:37:02.206Z,13.19
2023-03-19T06:38:02.198Z,13.14
2023-03-19T06:39:02.190Z,13.08
2023-03-19T06:40:02.176Z,13.08
2023-03-19T06:41:02.166Z,13.09
2023-03-19T06:42:02.221Z,13.14
2023-03-19T06:43:02.139Z,13.16
2023-03-19T06:44:02.142Z,13.08
2023-03-19T06:45:02.118Z,12.79
2023-03-19T06:46:02.178Z,12.57
2023-03-19T06:47:02.107Z,12.49
2023-03-19T06:48:02.116Z,12.42
2023-03-19T06:49:02.075Z,12.34
2023-03-19T06:50:02.061Z,12.10
2023-03-19T06:51:02.072Z,11.94
2023-03-19T06:52:02.041Z,11.73
2023-03-19T06:53:02.024Z,11.48
2023-03-19T06:54:02.021Z,11.30
2023-03-19T06:55:02.004Z,11.18
2023-03-19T06:56:01.998Z,11.17
2023-03-19T06:57:01.991Z,11.14
2023-03-19T06:58:01.972Z,11.14
2023-03-19T06:59:01.961Z,11.14
2023-03-19T07:00:01.947Z,11.08
2023-03-19T07:01:01.992Z,11.02
2023-03-19T07:02:01.928Z,10.96
2023-03-19T07:03:01.914Z,10.97
2023-03-19T07:04:02.083Z,11.03
2023-03-19T07:05:01.904Z,11.08
2023-03-19T07:06:01.885Z,10.99
2023-03-19T07:07:01.872Z,10.86
2023-03-19T07:08:01.868Z,10.84
2023-03-19T07:09:01.844Z,10.82
2023-03-19T07:10:01.844Z,10.81
2023-03-19T07:11:01.824Z,10.86
2023-03-19T07:12:01.811Z,10.96
2023-03-19T07:13:01.832Z,11.03
2023-03-19T07:14:01.792Z,11.12
2023-03-19T07:15:01.785Z,11.18
2023-03-19T07:16:01.776Z,11.27
2023-03-19T07:17:01.764Z,11.30
2023-03-19T07:18:01.755Z,11.34
2023-03-19T07:19:01.732Z,11.17
2023-03-19T07:20:01.845Z,11.04
2023-03-19T07:21:01.710Z,10.97
2023-03-19T07:22:01.708Z,10.93
2023-03-19T07:23:01.738Z,10.82
2023-03-19T07:24:01.677Z,10.84
2023-03-19T07:25:01.680Z,10.92
2023-03-19T07:26:01.656Z,11.00
2023-03-19T07:27:01.642Z,11.12
2023-03-19T07:28:01.631Z,11.19
2023-03-19T07:29:01.620Z,11.28
2023-03-19T07:30:01.607Z,11.36
2023-03-19T07:31:01.598Z,11.41
2023-03-19T07:32:01.710Z,11.46
2023-03-19T07:33:01.626Z,11.48
2023-03-19T07:34:01.568Z,11.49
2023-03-19T07:35:01.553Z,11.52
2023-03-19T07:36:01.674Z,11.55
2023-03-19T07:37:01.527Z,11.61
2023-03-19T07:38:01.516Z,11.67
2023-03-19T07:39:01.512Z,11.73
2023-03-19T07:40:01.530Z,11.80
2023-03-19T07:41:02.924Z,11.88
2023-03-19T07:42:01.480Z,11.91
2023-03-19T07:43:01.471Z,11.96
2023-03-19T07:44:01.455Z,12.07
2023-03-19T07:45:01.451Z,12.24
2023-03-19T07:46:01.615Z,12.43
2023-03-19T07:47:01.417Z,12.53
2023-03-19T07:48:01.404Z,12.66
2023-03-19T07:49:01.403Z,12.69
2023-03-19T07:50:01.383Z,12.72
2023-03-19T07:51:01.369Z,12.79
2023-03-19T07:52:01.393Z,12.83
2023-03-19T07:53:01.361Z,12.99
2023-03-19T07:54:01.337Z,13.24
2023-03-19T07:55:01.324Z,13.32
2023-03-19T07:56:01.311Z,13.50
2023-03-19T07:57:01.300Z,13.53
2023-03-19T07:58:01.294Z,13.79
2023-03-19T07:59:01.277Z,14.00
2023-03-19T08:00:01.277Z,14.19
2023-03-19T08:01:01.267Z,14.31
2023-03-19T08:02:01.281Z,14.27
2023-03-19T08:03:01.238Z,14.12
2023-03-19T08:04:01.220Z,13.92
2023-03-19T08:05:01.209Z,13.57
2023-03-19T08:06:01.201Z,13.39
2023-03-19T08:07:01.195Z,13.32
2023-03-19T08:08:01.236Z,13.24
2023-03-19T08:09:01.172Z,13.14
2023-03-19T08:10:01.151Z,12.91
2023-03-19T08:11:01.149Z,12.87
2023-03-19T08:12:01.146Z,12.91
2023-03-19T08:13:01.127Z,12.95
2023-03-19T08:14:01.108Z,13.01
2023-03-19T08:15:01.299Z,13.06
2023-03-19T08:16:01.169Z,13.13
2023-03-19T08:17:01.109Z,13.20
2023-03-19T08:18:01.068Z,13.26
2023-03-19T08:19:01.057Z,13.34
2023-03-19T08:20:01.071Z,13.35
2023-03-19T08:21:01.022Z,13.24
2023-03-19T08:22:01.024Z,13.19
2023-03-19T08:23:01.023Z,13.20
2023-03-19T08:24:03.760Z,13.17
2023-03-19T08:25:01.023Z,13.13
2023-03-19T08:26:00.974Z,13.08
2023-03-19T08:27:00.963Z,12.98
2023-03-19T08:28:01.254Z,12.95
2023-03-19T08:29:00.950Z,12.91
2023-03-19T08:30:00.931Z,12.76
2023-03-19T08:31:00.941Z,12.73
2023-03-19T08:32:00.941Z,12.68
2023-03-19T08:33:00.949Z,12.40
2023-03-19T08:34:00.885Z,12.13
2023-03-19T08:35:00.878Z,12.14
2023-03-19T08:36:00.886Z,12.14
2023-03-19T08:37:00.851Z,12.13
2023-03-19T08:38:00.841Z,12.10
2023-03-19T08:39:00.821Z,12.02
2023-03-19T08:40:00.833Z,11.89
2023-03-19T08:41:00.802Z,11.76
2023-03-19T08:42:00.788Z,11.71
2023-03-19T08:43:00.777Z,11.66
2023-03-19T08:44:00.765Z,11.66
2023-03-19T08:45:00.765Z,11.62
2023-03-19T08:46:00.822Z,11.61
2023-03-19T08:47:00.734Z,11.55
2023-03-19T08:48:00.741Z,11.52
2023-03-19T08:49:00.710Z,11.46
2023-03-19T08:50:00.706Z,11.40
2023-03-19T08:51:00.698Z,11.41
2023-03-19T08:52:00.674Z,11.38
2023-03-19T08:53:00.672Z,11.40
2023-03-19T08:54:00.650Z,11.51
2023-03-19T08:55:00.674Z,11.56
2023-03-19T08:56:00.654Z,11.62
2023-03-19T08:57:00.617Z,11.66
2023-03-19T08:58:00.614Z,11.67
2023-03-19T08:59:00.595Z,11.71
2023-03-19T09:00:00.588Z,11.69
2023-03-19T09:01:00.572Z,11.61
2023-03-19T09:02:00.650Z,11.52
2023-03-19T09:03:00.555Z,11.45
2023-03-19T09:04:00.541Z,11.46
2023-03-19T09:05:00.535Z,11.49
2023-03-19T09:06:00.517Z,11.54
2023-03-19T09:07:00.505Z,11.55
2023-03-19T09:08:00.495Z,11.52
2023-03-19T09:09:02.521Z,11.49
2023-03-19T09:10:00.474Z,11.55
2023-03-19T09:11:00.507Z,11.54
2023-03-19T09:12:00.482Z,11.56
2023-03-19T09:13:00.437Z,11.58
2023-03-19T09:14:00.430Z,11.61
2023-03-19T09:15:00.433Z,11.59
2023-03-19T09:16:00.457Z,11.58
2023-03-19T09:17:00.396Z,11.58
2023-03-19T09:18:00.383Z,11.62
2023-03-19T09:19:00.377Z,11.71
2023-03-19T09:20:00.367Z,11.77
2023-03-19T09:21:00.349Z,11.84
2023-03-19T09:22:00.344Z,11.91
2023-03-19T09:23:00.334Z,11.96
2023-03-19T09:24:00.322Z,11.99
2023-03-19T09:25:00.351Z,12.04
2023-03-19T09:26:00.298Z,12.07
2023-03-19T09:27:00.291Z,12.09
2023-03-19T09:28:00.314Z,12.09
2023-03-19T09:29:00.275Z,12.10
2023-03-19T09:30:00.261Z,12.10
2023-03-19T09:31:00.306Z,12.13
2023-03-19T09:32:00.243Z,12.14
2023-03-19T09:33:00.288Z,12.14
2023-03-19T09:34:00.205Z,12.12
2023-03-19T09:35:00.197Z,12.13
2023-03-19T09:36:00.282Z,12.14
2023-03-19T09:37:00.176Z,12.16
2023-03-19T09:38:00.181Z,12.17
2023-03-19T09:39:00.153Z,12.22
2023-03-19T09:40:00.145Z,12.25
2023-03-19T09:41:00.125Z,12.28
2023-03-19T09:42:00.190Z,12.28
2023-03-19T09:43:00.207Z,12.32
2023-03-19T09:44:00.146Z,12.34
2023-03-19T09:45:00.111Z,12.39
2023-03-19T09:46:00.097Z,12.47
2023-03-19T09:47:00.131Z,12.54
2023-03-19T09:48:00.061Z,12.65
2023-03-19T09:49:00.061Z,12.72
2023-03-19T09:50:00.036Z,12.81
2023-03-19T09:51:00.019Z,12.90
2023-03-19T09:52:00.008Z,12.98
2023-03-19T09:52:59.993Z,13.02
2023-03-19T09:53:59.986Z,13.05
2023-03-19T09:54:59.968Z,13.06
2023-03-19T09:55:59.960Z,13.09
2023-03-19T09:56:59.952Z,13.09
2023-03-19T09:57:59.933Z,13.08
2023-03-19T09:58:59.950Z,13.08
2023-03-19T09:59:59.937Z,13.09
2023-03-19T10:00:59.901Z,13.13
2023-03-19T10:02:00.008Z,13.14
2023-03-19T10:03:02.651Z,13.17
2023-03-19T10:03:59.893Z,13.21
2023-03-19T10:04:59.883Z,13.26
2023-03-19T10:05:59.853Z,13.27
2023-03-19T10:06:59.837Z,13.32
2023-03-19T10:07:59.827Z,13.38
2023-03-19T10:08:59.811Z,13.42
2023-03-19T10:09:59.799Z,13.44
2023-03-19T10:10:59.801Z,13.52
2023-03-19T10:11:59.786Z,13.56
2023-03-19T10:12:59.783Z,13.62
2023-03-19T10:13:59.776Z,13.67
2023-03-19T10:14:59.754Z,13.75
2023-03-19T10:15:59.803Z,13.78
2023-03-19T10:16:59.720Z,13.77
2023-03-19T10:17:59.711Z,13.77
2023-03-19T10:19:00.204Z,13.67
2023-03-19T10:19:59.688Z,13.46
2023-03-19T10:20:59.678Z,13.38
2023-03-19T10:21:59.666Z,13.39
2023-03-19T10:22:59.657Z,13.45
2023-03-19T10:23:59.661Z,13.50
2023-03-19T10:24:59.632Z,13.53
2023-03-19T10:25:59.622Z,13.60
2023-03-19T10:26:59.627Z,13.62
2023-03-19T10:27:59.596Z,13.63
2023-03-19T10:28:59.601Z,13.72
2023-03-19T10:29:59.598Z,13.70
2023-03-19T10:31:02.138Z,13.64
2023-03-19T10:31:59.728Z,13.62
2023-03-19T10:32:59.641Z,13.60
2023-03-19T10:33:59.541Z,13.56
2023-03-19T10:34:59.553Z,13.72
2023-03-19T10:35:59.584Z,14.33
2023-03-19T10:36:59.504Z,14.92
2023-03-19T10:37:59.496Z,15.59
2023-03-19T10:38:59.481Z,16.08
2023-03-19T10:39:59.482Z,16.39
2023-03-19T10:40:59.463Z,16.35
2023-03-19T10:41:59.485Z,15.98
2023-03-19T10:42:59.450Z,15.60
2023-03-19T10:43:59.422Z,15.29
2023-03-19T10:44:59.414Z,15.18
2023-03-19T10:45:59.434Z,15.18
2023-03-19T10:46:59.394Z,15.29
2023-03-19T10:47:59.403Z,15.35
2023-03-19T10:48:59.385Z,15.37
2023-03-19T10:49:59.361Z,15.40
2023-03-19T10:50:59.348Z,15.56
2023-03-19T10:51:59.342Z,15.66
2023-03-19T10:52:59.334Z,15.62
2023-03-19T10:53:59.337Z,15.98
2023-03-19T10:54:59.298Z,16.28
2023-03-19T10:55:59.286Z,16.50
2023-03-19T10:56:59.288Z,16.61
2023-03-19T10:57:59.266Z,16.56
2023-03-19T10:58:59.257Z,16.45
2023-03-19T11:00:01.500Z,16.27
2023-03-19T11:00:59.268Z,15.91
2023-03-19T11:01:59.227Z,15.90
2023-03-19T11:02:59.236Z,15.54
2023-03-19T11:03:59.271Z,15.58
2023-03-19T11:04:59.184Z,15.56
2023-03-19T11:05:59.171Z,15.70
2023-03-19T11:06:59.163Z,15.93
2023-03-19T11:07:59.155Z,16.25
2023-03-19T11:08:59.167Z,16.54
2023-03-19T11:09:59.289Z,16.45
2023-03-19T11:10:59.126Z,16.76
2023-03-19T11:11:59.105Z,17.16
2023-03-19T11:12:59.094Z,17.77
2023-03-19T11:14:05.105Z,18.23
2023-03-19T11:14:59.081Z,18.29
2023-03-19T11:15:59.061Z,18.25
2023-03-19T11:16:59.106Z,18.07
2023-03-19T11:17:59.043Z,17.90
2023-03-19T11:18:59.027Z,17.87
2023-03-19T11:19:59.054Z,17.75
2023-03-19T11:20:59.017Z,17.80
2023-03-19T11:21:58.998Z,17.86
2023-03-19T11:22:58.988Z,17.93
2023-03-19T11:23:58.973Z,17.96
2023-03-19T11:24:58.966Z,18.01
2023-03-19T11:25:58.954Z,18.10
2023-03-19T11:26:58.943Z,18.16
2023-03-19T11:27:58.935Z,18.02
2023-03-19T11:28:58.915Z,17.74
2023-03-19T11:29:58.925Z,17.47
2023-03-19T11:30:58.907Z,17.39
2023-03-19T11:32:02.002Z,17.43
2023-03-19T11:32:58.924Z,17.43
2023-03-19T11:33:58.860Z,17.43
2023-03-19T11:34:58.855Z,17.37
2023-03-19T11:35:58.886Z,17.30
2023-03-19T11:36:58.826Z,17.31
2023-03-19T11:37:58.820Z,17.37
2023-03-19T11:38:58.811Z,17.41
2023-03-19T11:39:58.797Z,17.38
2023-03-19T11:40:58.784Z,17.39
2023-03-19T11:41:58.788Z,17.30
2023-03-19T11:42:58.769Z,17.09
2023-03-19T11:43:58.753Z,17.04
2023-03-19T11:44:58.747Z,17.06
2023-03-19T11:45:58.812Z,17.10
2023-03-19T11:46:58.725Z,17.22
2023-03-19T11:47:58.710Z,17.32
2023-03-19T11:48:58.701Z,17.46
2023-03-19T11:49:58.685Z,17.43
2023-03-19T11:50:58.681Z,17.34
2023-03-19T11:51:58.690Z,17.24
2023-03-19T11:52:58.650Z,17.25
2023-03-19T11:54:04.654Z,17.31
2023-03-19T11:54:58.633Z,17.30
2023-03-19T11:55:58.636Z,17.16
2023-03-19T11:56:58.610Z,17.14
2023-03-19T11:57:58.610Z,17.19
2023-03-19T11:58:58.601Z,17.24
2023-03-19T11:59:58.575Z,17.30
2023-03-19T12:00:58.628Z,17.34
2023-03-19T12:01:58.561Z,17.39
2023-03-19T12:03:04.554Z,17.43
2023-03-19T12:03:58.606Z,17.46
2023-03-19T12:04:58.528Z,17.47
2023-03-19T12:05:58.514Z,17.38
2023-03-19T12:06:58.503Z,17.37
2023-03-19T12:07:58.534Z,17.39
2023-03-19T12:08:58.478Z,17.43
2023-03-19T12:09:58.468Z,17.37
2023-03-19T12:10:58.467Z,17.39
2023-03-19T12:12:04.458Z,17.45
2023-03-19T12:12:58.438Z,17.41
2023-03-19T12:13:58.423Z,17.39
2023-03-19T12:14:58.422Z,17.38
2023-03-19T12:15:58.461Z,17.43
2023-03-19T12:16:58.391Z,17.49
2023-03-19T12:17:58.433Z,17.52
2023-03-19T12:18:58.369Z,17.50
2023-03-19T12:19:58.356Z,17.53
2023-03-19T12:20:58.348Z,17.57
2023-03-19T12:21:58.339Z,17.57
2023-03-19T12:22:58.324Z,17.53
2023-03-19T12:23:58.341Z,17.47
2023-03-19T12:24:58.303Z,17.37
2023-03-19T12:25:58.303Z,17.20
2023-03-19T12:26:58.284Z,17.09
2023-03-19T12:27:58.274Z,17.01
2023-03-19T12:28:58.256Z,16.94
2023-03-19T12:29:58.252Z,16.86
2023-03-19T12:30:58.284Z,16.87
2023-03-19T12:31:58.227Z,16.95
2023-03-19T12:33:04.271Z,16.98
2023-03-19T12:33:58.206Z,16.98
2023-03-19T12:34:58.189Z,16.97
2023-03-19T12:35:58.216Z,17.01
2023-03-19T12:36:58.166Z,17.07
2023-03-19T12:37:58.160Z,17.12
2023-03-19T12:38:58.145Z,17.19
2023-03-19T12:39:58.160Z,17.28
2023-03-19T12:40:58.125Z,17.38
2023-03-19T12:41:58.111Z,17.47
2023-03-19T12:42:58.102Z,17.50
2023-03-19T12:43:58.094Z,17.46
2023-03-19T12:44:58.076Z,17.43
2023-03-19T12:45:58.436Z,17.47
2023-03-19T12:46:59.413Z,17.50
2023-03-19T12:48:04.057Z,17.30
2023-03-19T12:49:04.048Z,16.86
2023-03-19T12:49:58.025Z,16.45
2023-03-19T12:50:58.038Z,16.31
2023-03-19T12:51:57.999Z,16.27
2023-03-19T12:52:58.344Z,16.42